Time;durP1;ratioP1;P1;durP2;ratioP2;P2;SDS_P1;SDS_P2;PMS_P1;PMS_P2;Temp;Humidity;BMP_temperature;BMP_pressure;BME280_temperature;BME280_humidity;BME280_pressure;Samples;Min_cycle;Max_cycle;Signal;HPM_P1;HPM_P2
2022/02/10 00:05:05;;;;;;;28.83;18.85;;;;;;;2.39;100.00;100992.19;6321699;28;20067;-73
2022/02/10 00:17:39;;;;;;;35.33;19.38;;;;;;;2.38;100.00;101011.06;6296382;28;20257;-73
2022/02/10 00:20:50;;;;;;;30.02;18.30;;;;;;;2.43;100.00;101011.88;6263786;28;20041;-73
2022/02/10 00:37:12;;;;;;;27.70;18.05;;;;;;;2.35;100.00;101006.81;6296303;28;20036;-68
2022/02/10 00:40:13;;;;;;;34.28;18.25;;;;;;;2.38;100.00;101001.59;6261906;28;20074;-69
2022/02/10 00:43:14;;;;;;;28.52;17.92;;;;;;;2.33;100.00;100997.41;6278332;28;20416;-68
2022/02/10 00:46:15;;;;;;;28.90;18.40;;;;;;;2.36;100.00;100997.34;6278241;28;20048;-68
2022/02/10 00:49:16;;;;;;;32.05;18.15;;;;;;;2.33;100.00;100997.41;6278072;28;20071;-68
2022/02/10 00:52:17;;;;;;;33.25;19.83;;;;;;;2.13;100.00;100998.47;6261674;28;20040;-68
2022/02/10 00:55:23;;;;;;;28.35;18.27;;;;;;;2.19;100.00;100998.41;6261298;28;20056;-68
2022/02/10 00:58:29;;;;;;;29.27;18.38;;;;;;;2.25;100.00;101006.94;6295752;28;20045;-68
2022/02/10 01:12:10;;;;;;;27.33;18.52;;;;;;;2.18;100.00;101001.88;6266644;28;20072;-68
2022/02/10 01:31:22;;;;;;;28.15;17.55;;;;;;;2.12;100.00;100993.31;6300015;28;20079;-72
2022/02/10 01:34:23;;;;;;;30.70;17.30;;;;;;;2.09;100.00;101001.09;6265942;28;20401;-68
2022/02/10 01:37:24;;;;;;;30.77;17.70;;;;;;;2.02;100.00;100992.59;6300747;28;20423;-73
2022/02/10 01:40:36;;;;;;;33.03;18.13;;;;;;;2.00;100.00;100991.75;6300398;28;20072;-68
2022/02/10 02:04:02;;;;;;;26.45;14.98;;;;;;;2.01;100.00;100985.72;6310086;28;20044;-72
2022/02/10 02:07:03;;;;;;;31.10;15.90;;;;;;;1.96;100.00;100988.38;6307629;28;20051;-68
2022/02/10 02:10:04;;;;;;;25.65;15.68;;;;;;;1.95;100.00;100985.81;6325111;28;20097;-68
2022/02/10 02:13:05;;;;;;;26.42;15.98;;;;;;;1.96;100.00;100988.38;6325099;28;20071;-69
2022/02/10 02:16:06;;;;;;;25.83;15.35;;;;;;;1.91;100.00;100986.69;6325085;28;20047;-68
2022/02/10 02:19:07;;;;;;;26.98;16.08;;;;;;;1.90;100.00;100987.59;6324949;28;20051;-68
2022/02/10 02:22:09;;;;;;;25.63;16.40;;;;;;;1.90;100.00;100987.59;6306045;28;20123;-72
2022/02/10 02:25:10;;;;;;;28.08;17.13;;;;;;;1.81;100.00;100994.53;6306757;28;20078;-72
2022/02/10 02:28:12;;;;;;;25.00;15.80;;;;;;;1.88;100.00;100992.75;6306902;28;20032;-72
2022/02/10 02:31:20;;;;;;;23.20;15.23;;;;;;;1.82;100.00;100987.66;6306741;28;20511;-68
2022/02/10 02:34:51;;;;;;;28.25;15.88;;;;;;;1.77;100.00;100990.28;6324581;28;20048;-68
2022/02/10 02:38:39;;;;;;;25.38;15.65;;;;;;;1.85;100.00;100999.63;6302608;28;20056;-69
2022/02/10 03:04:48;;;;;;;23.80;14.90;;;;;;;1.72;100.00;100992.03;6258303;28;20040;-70
2022/02/10 03:07:50;;;;;;;25.77;14.63;;;;;;;1.73;100.00;100993.75;6273540;28;20059;-69
2022/02/10 03:14:04;;;;;;;22.25;14.85;;;;;;;1.63;100.00;100988.69;6273744;28;20435;-69
2022/02/10 03:17:40;;;;;;;23.63;14.50;;;;;;;1.65;100.00;100992.97;6241137;28;20076;-69
2022/02/10 04:01:05;;;;;;;23.30;14.63;;;;;;;1.52;100.00;100987.06;6321810;28;20043;-72
2022/02/10 04:04:28;;;;;;;21.30;14.00;;;;;;;1.45;100.00;100982.84;6321096;28;20047;-72
2022/02/10 04:14:04;;;;;;;22.15;13.90;;;;;;;1.31;100.00;100993.25;6321494;28;20052;-72
2022/02/10 04:17:24;;;;;;;28.00;15.38;;;;;;;1.27;100.00;100988.13;6287137;28;20056;-72
2022/02/10 04:26:59;;;;;;;25.20;14.77;;;;;;;1.49;100.00;100986.25;6321293;28;20452;-72
2022/02/10 05:22:43;;;;;;;24.98;14.77;;;;;;;1.41;100.00;100964.00;6301049;28;20048;-68
2022/02/10 05:33:15;;;;;;;26.08;14.57;;;;;;;1.44;100.00;100957.13;6325436;28;20123;-73
2022/02/10 05:35:50;;;;;;;25.08;14.70;;;;;;;1.38;100.00;100956.34;6317052;28;20056;-73
2022/02/10 05:39:01;;;;;;;25.88;15.05;;;;;;;1.23;100.00;100955.59;6308013;28;20044;-72
2022/02/10 05:45:27;;;;;;;26.63;16.05;;;;;;;1.29;100.00;100964.13;6308388;28;20536;-68
2022/02/10 05:55:27;;;;;;;24.33;15.27;;;;;;;1.29;100.00;100968.41;6322458;28;20511;-72
2022/02/10 06:02:24;;;;;;;;;;;;;;;1.34;100.00;100990.66;6306890;28;20447;-72
2022/02/10 06:52:05;;;;;;;23.38;14.55;;;;;;;1.87;100.00;100991.00;6322302;28;20447;-69
2022/02/10 07:05:43;;;;;;;27.65;15.85;;;;;;;1.85;100.00;100974.75;6297607;28;20048;-72
2022/02/10 07:15:35;;;;;;;32.03;15.43;;;;;;;2.05;100.00;100977.09;6263328;28;20562;-72
2022/02/10 07:49:10;;;;;;;26.95;15.63;;;;;;;3.01;100.00;100980.16;6268186;28;20052;-68
2022/02/10 07:58:57;;;;;;;25.23;15.60;;;;;;;3.05;100.00;100970.66;6321656;28;20442;-73
2022/02/10 08:25:59;;;;;;;27.30;14.82;;;;;;;3.37;100.00;100974.44;6291982;28;20503;-69
2022/02/10 09:04:29;;;;;;;34.50;19.50;;;;;;;4.64;100.00;100955.66;6295499;28;20045;-73
2022/02/10 09:59:38;;;;;;;29.90;18.85;;;;;;;7.59;96.46;100931.78;6324492;28;20039;-74
2022/02/10 10:02:45;;;;;;;28.77;18.63;;;;;;;7.52;97.58;100935.50;6293750;28;20481;-70
2022/02/10 10:06:17;;;;;;;26.95;18.65;;;;;;;7.62;96.43;100918.72;6291398;28;20040;-69
2022/02/10 10:18:53;;;;;;;25.42;17.65;;;;;;;7.55;100.00;100918.97;6305984;28;20113;-73
2022/02/10 10:22:07;;;;;;;28.67;18.23;;;;;;;7.67;100.00;100916.78;6323931;28;20071;-69
2022/02/10 10:25:23;;;;;;;25.13;18.00;;;;;;;8.09;97.45;100917.88;6289039;28;20055;-70
2022/02/10 10:58:19;;;;;;;25.65;16.25;;;;;;;9.30;91.72;100861.97;6322907;28;20044;-73
2022/02/10 11:37:39;;;;;;;18.63;12.65;;;;;;;10.43;80.20;100809.91;6321810;28;20051;-69
2022/02/10 11:44:48;;;;;;;20.33;12.40;;;;;;;10.58;79.24;100795.28;6321905;28;20040;-74
2022/02/10 14:14:19;;;;;;;18.08;11.48;;;;;;;11.47;74.79;100654.84;6307986;28;20128;-74
2022/02/10 14:17:37;;;;;;;16.67;10.73;;;;;;;11.39;76.01;100637.94;6308989;28;20039;-73
2022/02/10 14:26:48;;;;;;;19.02;11.35;;;;;;;11.48;76.67;100643.47;6298752;28;20041;-69
2022/02/10 14:29:49;;;;;;;15.38;11.80;;;;;;;11.54;75.68;100644.91;6286482;28;20036;-69
2022/02/10 14:32:51;;;;;;;17.88;11.10;;;;;;;11.49;75.68;100639.94;6278240;28;20048;-69
2022/02/10 14:35:58;;;;;;;17.92;11.60;;;;;;;11.37;76.21;100631.94;6287608;28;20051;-74
2022/02/10 14:39:13;;;;;;;16.42;11.60;;;;;;;11.33;76.93;100626.03;6270186;28;20045;-74
2022/02/10 15:48:42;;;;;;;19.67;9.95;;;;;;;9.70;91.85;100577.06;6296916;28;20054;-68
2022/02/10 15:51:38;;;;;;;19.70;10.15;;;;;;;9.56;93.78;100571.66;6296824;28;20135;-73
2022/02/10 16:11:34;;;;;;;15.85;9.20;;;;;;;9.17;97.09;100576.09;6306289;28;20044;-72
2022/02/10 16:15:09;;;;;;;24.65;11.63;;;;;;;9.12;97.62;100572.88;6321492;28;20050;-70
2022/02/10 16:18:12;;;;;;;25.73;12.65;;;;;;;9.04;98.10;100568.03;6321577;28;20039;-68
2022/02/10 16:21:26;;;;;;;17.10;10.23;;;;;;;9.03;98.03;100573.28;6321078;28;20556;-68
2022/02/10 16:24:35;;;;;;;15.32;10.50;;;;;;;8.94;98.87;100566.75;6321294;28;20066;-72
2022/02/10 16:27:37;;;;;;;12.52;8.63;;;;;;;8.80;99.59;100556.97;6303154;28;20040;-72
2022/02/10 16:30:39;;;;;;;15.40;10.65;;;;;;;8.73;100.00;100560.78;6303283;28;20036;-73
2022/02/10 16:33:43;;;;;;;16.05;11.30;;;;;;;8.66;100.00;100560.19;6303170;28;20047;-72
2022/02/10 16:36:46;;;;;;;16.92;11.57;;;;;;;8.55;100.00;100546.84;6321255;28;20040;-72
2022/02/10 16:39:48;;;;;;;;;;;;;;;8.49;100.00;100549.69;6303673;28;20036;-68
2022/02/10 16:42:50;;;;;;;15.23;10.13;;;;;;;8.40;100.00;100545.72;6302491;28;19927;-68
2022/02/10 16:45:52;;;;;;;14.85;10.73;;;;;;;8.39;100.00;100546.63;6286601;28;20090;-72
2022/02/10 16:48:53;;;;;;;23.48;12.77;;;;;;;8.36;100.00;100545.91;6302920;28;20050;-68
2022/02/10 16:51:55;;;;;;;19.48;12.70;;;;;;;8.33;100.00;100546.06;6302776;28;20537;-72
2022/02/10 16:55:09;;;;;;;20.50;13.40;;;;;;;8.26;100.00;100543.72;6320534;28;20419;-72
2022/02/10 17:27:46;;;;;;;31.10;18.33;;;;;;;7.83;100.00;100555.09;6320404;28;20040;-69
2022/02/10 17:54:25;;;;;;;33.60;18.80;;;;;;;7.56;100.00;100544.09;6307621;28;20083;-68
2022/02/10 17:57:27;;;;;;;;;;;;;;;7.53;100.00;100552.84;6307405;28;20040;-67
2022/02/10 18:00:28;;;;;;;69.07;34.35;;;;;;;7.49;100.00;100550.44;6305835;28;19943;-68
2022/02/10 18:03:29;;;;;;;73.38;36.58;;;;;;;7.42;100.00;100549.84;6306529;28;20480;-72
2022/02/10 18:06:36;;;;;;;60.67;32.15;;;;;;;7.26;100.00;100547.00;6306875;28;20063;-73
2022/02/10 18:15:44;;;;;;;48.95;27.95;;;;;;;6.87;100.00;100539.84;6324244;28;20435;-72
2022/02/10 18:18:55;;;;;;;45.90;24.98;;;;;;;6.80;100.00;100541.00;6324267;28;20047;-68
2022/02/10 18:35:27;;;;;;;45.30;27.67;;;;;;;5.74;100.00;100555.91;6289348;28;20044;-72
2022/02/10 18:54:21;;;;;;;46.03;28.33;;;;;;;5.84;100.00;100552.09;6310112;28;20043;-72
2022/02/10 19:10:57;;;;;;;57.28;32.15;;;;;;;5.27;100.00;100528.94;6322851;28;20044;-67
2022/02/10 19:14:04;;;;;;;45.70;29.58;;;;;;;5.19;100.00;100526.63;6305996;28;20044;-72
2022/02/10 19:17:05;;;;;;;53.30;30.42;;;;;;;5.21;100.00;100517.09;6299622;28;20492;-68
2022/02/10 19:20:07;;;;;;;73.22;35.83;;;;;;;5.20;100.00;100508.44;6278560;28;20413;-72
2022/02/10 19:23:10;;;;;;;104.10;45.20;;;;;;;5.16;100.00;100517.19;6297313;28;20043;-72
2022/02/10 19:26:11;;;;;;;;;;;;;;;5.13;100.00;100512.13;6280254;28;20127;-68
2022/02/10 19:29:12;;;;;;;75.90;40.08;;;;;;;5.07;100.00;100507.16;6297307;28;19927;-68
2022/02/10 19:32:17;;;;;;;92.80;46.20;;;;;;;5.00;100.00;100505.63;6280627;28;20416;-68
2022/02/10 19:35:22;;;;;;;98.50;48.75;;;;;;;4.90;100.00;100501.63;6282256;28;20092;-68
2022/02/10 19:38:26;;;;;;;90.22;46.47;;;;;;;4.88;100.00;100485.31;6283274;28;20051;-68
2022/02/10 19:41:32;;;;;;;90.15;47.78;;;;;;;4.87;100.00;100481.91;6296952;28;20097;-68
2022/02/10 19:44:33;;;;;;;96.03;49.33;;;;;;;4.87;100.00;100484.47;6279348;28;20045;-68
2022/02/10 19:47:37;;;;;;;107.35;56.38;;;;;;;4.83;100.00;100488.06;6296947;28;20041;-72
2022/02/10 19:50:39;;;;;;;131.50;63.85;;;;;;;4.82;100.00;100488.97;6296944;28;20048;-72
2022/02/10 19:53:40;;;;;;;116.68;58.63;;;;;;;4.80;100.00;100483.84;6262661;28;20426;-72
2022/02/10 19:56:41;;;;;;;102.88;53.05;;;;;;;4.61;100.00;100468.03;6296622;28;20131;-72
2022/02/10 19:59:42;;;;;;;114.38;60.40;;;;;;;4.26;100.00;100463.03;6296674;28;20448;-68
2022/02/10 20:02:44;;;;;;;100.40;58.35;;;;;;;4.35;100.00;100458.44;6303271;28;20040;-68
2022/02/10 20:05:48;;;;;;;92.87;53.07;;;;;;;4.42;100.00;100462.53;6303663;28;20399;-69
2022/02/10 20:08:49;;;;;;;83.88;44.67;;;;;;;4.48;100.00;100458.09;6321619;28;20060;-68
2022/02/10 20:11:51;;;;;;;62.85;36.35;;;;;;;4.49;100.00;100464.94;6287058;28;20098;-68
2022/02/10 20:14:52;;;;;;;88.78;47.45;;;;;;;4.44;100.00;100463.34;6321452;28;20482;-68
2022/02/10 20:17:55;;;;;;;80.78;45.80;;;;;;;4.44;100.00;100463.34;6302804;28;20067;-68
2022/02/10 20:20:56;;;;;;;65.00;38.50;;;;;;;4.47;100.00;100456.38;6321739;28;20070;-68
2022/02/10 20:23:57;;;;;;;63.88;36.78;;;;;;;4.42;100.00;100446.19;6321250;28;20036;-72
2022/02/10 20:26:58;;;;;;;65.03;37.33;;;;;;;4.48;100.00;100448.59;6321193;28;20044;-72
2022/02/10 20:30:01;;;;;;;60.60;36.03;;;;;;;4.42;100.00;100441.88;6286617;28;20050;-72
2022/02/10 20:33:04;;;;;;;66.25;37.40;;;;;;;4.36;100.00;100452.38;6321032;28;20048;-72
2022/02/10 20:36:06;;;;;;;65.13;37.95;;;;;;;4.34;100.00;100445.56;6303235;28;20043;-72
2022/02/10 20:39:08;;;;;;;61.75;37.70;;;;;;;4.30;100.00;100451.72;6303216;28;20359;-72
2022/02/10 20:42:16;;;;;;;64.50;37.53;;;;;;;4.21;100.00;100452.84;6320804;28;20051;-73
2022/02/10 20:45:17;;;;;;;73.50;39.22;;;;;;;4.11;100.00;100453.97;6271996;28;20052;-72
2022/02/10 20:48:17;;;;;;;81.43;39.22;;;;;;;4.02;100.00;100470.59;6302905;28;20048;-72
2022/02/10 20:51:19;;;;;;;79.22;40.08;;;;;;;4.03;100.00;100462.78;6303105;28;20580;-73
2022/02/10 20:54:21;;;;;;;82.63;37.92;;;;;;;3.98;100.00;100471.56;6302785;28;20052;-72
2022/02/10 20:57:23;;;;;;;75.05;37.35;;;;;;;3.91;100.00;100468.28;6303025;28;20048;-72
2022/02/10 21:00:30;;;;;;;80.35;37.78;;;;;;;3.89;100.00;100470.06;6320932;28;20046;-72
2022/02/10 21:03:34;;;;;;;78.28;37.40;;;;;;;3.85;100.00;100460.72;6321247;28;20399;-72
2022/02/10 21:07:23;;;;;;;81.38;36.42;;;;;;;3.83;100.00;100460.75;6321706;28;20051;-72
2022/02/10 21:10:03;;;;;;;83.75;36.92;;;;;;;3.83;100.00;100467.66;6313450;28;20055;-72
2022/02/10 21:13:07;;;;;;;76.43;34.95;;;;;;;3.79;100.00;100464.31;6270688;28;20068;-72
2022/02/10 21:16:09;;;;;;;56.60;29.92;;;;;;;3.73;100.00;100463.63;6321585;28;20043;-72
2022/02/10 21:19:12;;;;;;;44.75;24.63;;;;;;;3.75;100.00;100461.84;6303794;28;20097;-73
2022/02/10 21:22:17;;;;;;;41.55;23.35;;;;;;;3.85;100.00;100455.56;6321527;28;20131;-72
2022/02/10 21:25:23;;;;;;;38.97;21.92;;;;;;;3.96;100.00;100450.09;6304204;28;20036;-72
2022/02/10 21:28:31;;;;;;;38.60;22.08;;;;;;;4.02;100.00;100461.09;6306143;28;20044;-72
2022/02/10 21:31:41;;;;;;;31.08;18.98;;;;;;;4.06;100.00;100461.88;6326167;28;20052;-72
2022/02/10 21:34:59;;;;;;;26.45;18.02;;;;;;;4.11;100.00;100469.47;6325642;28;20047;-72
2022/02/10 21:38:15;;;;;;;30.77;18.15;;;;;;;4.27;100.00;100455.25;6325718;28;20392;-72
2022/02/10 22:03:57;;;;;;;31.52;19.42;;;;;;;4.33;100.00;100424.06;6284305;28;20052;-72
2022/02/10 22:19:56;;;;;;;36.50;19.58;;;;;;;4.16;100.00;100437.47;6308922;28;20051;-72
2022/02/10 22:23:06;;;;;;;35.28;20.70;;;;;;;4.11;100.00;100443.66;6306908;28;20048;-72
2022/02/10 22:26:08;;;;;;;64.10;37.50;;;;;;;4.10;100.00;100444.53;6287854;28;20070;-72
2022/02/10 22:29:24;;;;;;;84.40;53.58;;;;;;;4.02;100.00;100439.59;6299879;28;20521;-68
2022/02/10 22:32:41;;;;;;;123.90;70.90;;;;;;;3.99;100.00;100442.25;6299730;28;20044;-68
2022/02/10 22:35:43;;;;;;;100.88;61.05;;;;;;;4.04;100.00;100442.97;6316707;28;20051;-72
2022/02/10 22:38:46;;;;;;;84.35;52.70;;;;;;;4.04;100.00;100448.97;6289347;28;20056;-72
2022/02/10 22:41:47;;;;;;;45.45;28.70;;;;;;;4.00;100.00;100452.53;6310021;28;20068;-67
2022/02/10 22:44:48;;;;;;;36.35;22.92;;;;;;;4.02;100.00;100463.66;6281403;28;20063;-68
2022/02/10 22:47:49;;;;;;;33.17;21.80;;;;;;;3.95;100.00;100461.28;6281416;28;20052;-68
2022/02/10 22:50:50;;;;;;;38.50;22.42;;;;;;;3.83;100.00;100465.91;6298472;28;20079;-68
2022/02/10 22:53:52;;;;;;;41.40;23.38;;;;;;;3.81;100.00;100462.53;6269163;28;20040;-69
2022/02/10 22:56:53;;;;;;;35.67;21.80;;;;;;;3.79;100.00;100464.31;6306385;28;20090;-69
2022/02/10 22:59:58;;;;;;;37.03;21.92;;;;;;;3.69;100.00;100468.00;6305952;28;20469;-68
2022/02/10 23:02:59;;;;;;;40.00;21.25;;;;;;;3.57;100.00;100458.84;6306589;28;20043;-68
2022/02/10 23:06:00;;;;;;;51.92;21.13;;;;;;;3.56;100.00;100453.72;6305740;28;20040;-68
2022/02/10 23:09:23;;;;;;;35.00;19.23;;;;;;;3.55;100.00;100459.78;6306046;28;20040;-68
2022/02/10 23:12:22;;;;;;;33.63;19.60;;;;;;;3.54;100.00;100451.19;6323671;28;20048;-68
2022/02/10 23:15:23;;;;;;;31.33;19.08;;;;;;;3.50;100.00;100454.75;6323716;28;20101;-67
2022/02/10 23:18:27;;;;;;;35.63;19.27;;;;;;;3.41;100.00;100460.94;6323714;28;20482;-68
2022/02/10 23:21:28;;;;;;;30.48;19.50;;;;;;;3.07;100.00;100462.66;6323608;28;20071;-68
2022/02/10 23:24:29;;;;;;;35.25;20.10;;;;;;;3.15;100.00;100455.59;6305568;28;20076;-67
2022/02/10 23:27:30;;;;;;;36.55;18.92;;;;;;;3.01;100.00;100455.94;6323572;28;20043;-68
2022/02/10 23:30:30;;;;;;;36.05;20.92;;;;;;;2.86;100.00;100453.69;6305352;28;20122;-68
2022/02/10 23:33:36;;;;;;;31.55;19.13;;;;;;;2.83;100.00;100445.16;6305578;28;20048;-72
2022/02/10 23:39:45;;;;;;;36.35;19.85;;;;;;;2.69;100.00;100439.44;6305784;28;20036;-72
2022/02/10 23:42:51;;;;;;;31.92;19.05;;;;;;;2.59;100.00;100449.13;6305714;28;20035;-68
2022/02/10 23:45:52;;;;;;;31.08;18.95;;;;;;;2.38;100.00;100445.28;6305847;28;20040;-67
2022/02/10 23:48:55;;;;;;;32.53;19.05;;;;;;;2.34;100.00;100446.22;6301235;28;20101;-68
2022/02/10 23:52:02;;;;;;;32.55;17.65;;;;;;;2.33;100.00;100443.69;6263473;28;20040;-67
2022/02/10 23:55:10;;;;;;;31.95;18.25;;;;;;;2.38;100.00;100447.84;6280692;28;20515;-67
